sensor_id;sensor_type;location;lat;lon;timestamp;temperature;humidity
64888;DHT22;51386;53.082;8.816;2023-12-20T00:00:12;8.40;96.70
64888;DHT22;51386;53.082;8.816;2023-12-20T00:02:41;8.40;96.80
64888;DHT22;51386;53.082;8.816;2023-12-20T00:05:14;8.40;96.80
64888;DHT22;51386;53.082;8.816;2023-12-20T00:07:43;8.30;96.70
64888;DHT22;51386;53.082;8.816;2023-12-20T00:10:12;8.30;96.80
64888;DHT22;51386;53.082;8.816;2023-12-20T00:12:41;8.30;96.80
64888;DHT22;51386;53.082;8.816;2023-12-20T00:15:09;8.20;96.80
64888;DHT22;51386;53.082;8.816;2023-12-20T00:17:38;8.20;96.90
64888;DHT22;51386;53.082;8.816;2023-12-20T00:20:07;8.20;96.90
64888;DHT22;51386;53.082;8.816;2023-12-20T00:22:36;8.20;96.90
64888;DHT22;51386;53.082;8.816;2023-12-20T00:25:04;8.10;96.90
64888;DHT22;51386;53.082;8.816;2023-12-20T00:27:33;8.20;97.00
64888;DHT22;51386;53.082;8.816;2023-12-20T00:30:01;8.10;96.90
64888;DHT22;51386;53.082;8.816;2023-12-20T00:32:30;8.10;96.90
64888;DHT22;51386;53.082;8.816;2023-12-20T00:34:58;8.00;96.80
64888;DHT22;51386;53.082;8.816;2023-12-20T00:37:27;8.00;96.90
64888;DHT22;51386;53.082;8.816;2023-12-20T00:39:55;8.00;96.90
64888;DHT22;51386;53.082;8.816;2023-12-20T00:42:24;7.90;96.90
64888;DHT22;51386;53.082;8.816;2023-12-20T00:44:52;7.90;96.90
64888;DHT22;51386;53.082;8.816;2023-12-20T00:47:20;7.90;96.90
64888;DHT22;51386;53.082;8.816;2023-12-20T00:49:49;7.90;97.00
64888;DHT22;51386;53.082;8.816;2023-12-20T00:52:18;7.90;97.00
64888;DHT22;51386;53.082;8.816;2023-12-20T00:54:47;7.80;97.00
64888;DHT22;51386;53.082;8.816;2023-12-20T00:57:15;7.80;97.10
64888;DHT22;51386;53.082;8.816;2023-12-20T00:59:43;7.80;97.10
64888;DHT22;51386;53.082;8.816;2023-12-20T01:02:12;7.80;97.00
64888;DHT22;51386;53.082;8.816;2023-12-20T01:04:40;7.80;97.10
64888;DHT22;51386;53.082;8.816;2023-12-20T01:07:09;7.80;97.10
64888;DHT22;51386;53.082;8.816;2023-12-20T01:09:37;7.70;97.10
64888;DHT22;51386;53.082;8.816;2023-12-20T01:12:06;7.70;97.10
64888;DHT22;51386;53.082;8.816;2023-12-20T01:14:34;7.70;97.10
64888;DHT22;51386;53.082;8.816;2023-12-20T01:17:02;7.70;97.40
64888;DHT22;51386;53.082;8.816;2023-12-20T01:19:31;7.70;97.20
64888;DHT22;51386;53.082;8.816;2023-12-20T01:22:00;7.60;97.10
64888;DHT22;51386;53.082;8.816;2023-12-20T01:24:28;7.60;97.20
64888;DHT22;51386;53.082;8.816;2023-12-20T01:26:56;7.60;97.30
64888;DHT22;51386;53.082;8.816;2023-12-20T01:29:25;7.60;97.30
64888;DHT22;51386;53.082;8.816;2023-12-20T01:31:53;7.60;97.30
64888;DHT22;51386;53.082;8.816;2023-12-20T01:34:22;7.60;97.30
64888;DHT22;51386;53.082;8.816;2023-12-20T01:36:50;7.60;97.40
64888;DHT22;51386;53.082;8.816;2023-12-20T01:39:19;7.60;97.30
64888;DHT22;51386;53.082;8.816;2023-12-20T01:41:55;7.60;97.30
64888;DHT22;51386;53.082;8.816;2023-12-20T01:44:24;7.60;97.40
64888;DHT22;51386;53.082;8.816;2023-12-20T01:46:52;7.60;97.40
64888;DHT22;51386;53.082;8.816;2023-12-20T01:49:21;7.60;97.40
64888;DHT22;51386;53.082;8.816;2023-12-20T01:51:50;7.60;97.50
64888;DHT22;51386;53.082;8.816;2023-12-20T01:54:19;7.60;97.40
64888;DHT22;51386;53.082;8.816;2023-12-20T01:56:49;7.60;97.40
64888;DHT22;51386;53.082;8.816;2023-12-20T01:59:19;7.60;97.30
64888;DHT22;51386;53.082;8.816;2023-12-20T02:01:49;7.60;97.30
64888;DHT22;51386;53.082;8.816;2023-12-20T02:04:18;7.60;97.20
64888;DHT22;51386;53.082;8.816;2023-12-20T02:06:47;7.60;97.20
64888;DHT22;51386;53.082;8.816;2023-12-20T02:09:16;7.60;97.20
64888;DHT22;51386;53.082;8.816;2023-12-20T02:11:44;7.50;97.20
64888;DHT22;51386;53.082;8.816;2023-12-20T02:14:13;7.60;97.20
64888;DHT22;51386;53.082;8.816;2023-12-20T02:16:41;7.50;97.20
64888;DHT22;51386;53.082;8.816;2023-12-20T02:19:13;7.50;97.20
64888;DHT22;51386;53.082;8.816;2023-12-20T02:21:43;7.50;97.20
64888;DHT22;51386;53.082;8.816;2023-12-20T02:24:11;7.50;97.20
64888;DHT22;51386;53.082;8.816;2023-12-20T02:26:40;7.50;97.20
64888;DHT22;51386;53.082;8.816;2023-12-20T02:29:12;7.50;97.30
64888;DHT22;51386;53.082;8.816;2023-12-20T02:31:41;7.50;97.30
64888;DHT22;51386;53.082;8.816;2023-12-20T02:34:09;7.40;97.30
64888;DHT22;51386;53.082;8.816;2023-12-20T02:36:38;7.50;97.40
64888;DHT22;51386;53.082;8.816;2023-12-20T02:39:06;7.40;97.30
64888;DHT22;51386;53.082;8.816;2023-12-20T02:41:35;7.50;97.40
64888;DHT22;51386;53.082;8.816;2023-12-20T02:44:04;7.50;97.30
64888;DHT22;51386;53.082;8.816;2023-12-20T02:46:32;7.50;97.40
64888;DHT22;51386;53.082;8.816;2023-12-20T02:49:00;7.50;97.40
64888;DHT22;51386;53.082;8.816;2023-12-20T02:51:29;7.50;97.40
64888;DHT22;51386;53.082;8.816;2023-12-20T02:53:57;7.50;97.40
64888;DHT22;51386;53.082;8.816;2023-12-20T02:56:26;7.50;97.40
64888;DHT22;51386;53.082;8.816;2023-12-20T02:58:54;7.60;97.40
64888;DHT22;51386;53.082;8.816;2023-12-20T03:01:22;7.60;97.30
64888;DHT22;51386;53.082;8.816;2023-12-20T03:03:51;7.60;97.20
64888;DHT22;51386;53.082;8.816;2023-12-20T03:06:19;7.60;97.20
64888;DHT22;51386;53.082;8.816;2023-12-20T03:08:48;7.60;97.20
64888;DHT22;51386;53.082;8.816;2023-12-20T03:11:17;7.70;97.20
64888;DHT22;51386;53.082;8.816;2023-12-20T03:13:45;7.70;97.10
64888;DHT22;51386;53.082;8.816;2023-12-20T03:16:13;7.70;97.10
64888;DHT22;51386;53.082;8.816;2023-12-20T03:18:44;7.80;97.10
64888;DHT22;51386;53.082;8.816;2023-12-20T03:21:12;7.80;96.90
64888;DHT22;51386;53.082;8.816;2023-12-20T03:23:41;7.80;96.90
64888;DHT22;51386;53.082;8.816;2023-12-20T03:26:10;7.80;96.90
64888;DHT22;51386;53.082;8.816;2023-12-20T03:28:38;7.80;96.80
64888;DHT22;51386;53.082;8.816;2023-12-20T03:31:06;7.90;96.70
64888;DHT22;51386;53.082;8.816;2023-12-20T03:33:35;7.90;96.60
64888;DHT22;51386;53.082;8.816;2023-12-20T03:36:04;7.80;96.60
64888;DHT22;51386;53.082;8.816;2023-12-20T03:38:32;7.90;96.70
64888;DHT22;51386;53.082;8.816;2023-12-20T03:41:01;7.90;96.90
64888;DHT22;51386;53.082;8.816;2023-12-20T03:43:29;7.90;96.60
64888;DHT22;51386;53.082;8.816;2023-12-20T03:45:58;7.90;96.60
64888;DHT22;51386;53.082;8.816;2023-12-20T03:48:27;7.90;96.60
64888;DHT22;51386;53.082;8.816;2023-12-20T03:50:57;8.00;96.60
64888;DHT22;51386;53.082;8.816;2023-12-20T03:53:25;8.00;96.70
64888;DHT22;51386;53.082;8.816;2023-12-20T03:55:53;8.00;96.60
64888;DHT22;51386;53.082;8.816;2023-12-20T03:58:22;8.00;96.60
64888;DHT22;51386;53.082;8.816;2023-12-20T04:00:50;8.00;96.60
64888;DHT22;51386;53.082;8.816;2023-12-20T04:03:19;8.00;96.60
64888;DHT22;51386;53.082;8.816;2023-12-20T04:05:47;8.00;96.50
64888;DHT22;51386;53.082;8.816;2023-12-20T04:08:15;8.00;96.50
64888;DHT22;51386;53.082;8.816;2023-12-20T04:10:44;8.00;96.50
64888;DHT22;51386;53.082;8.816;2023-12-20T04:13:12;8.00;96.40
64888;DHT22;51386;53.082;8.816;2023-12-20T04:15:41;8.00;96.40
64888;DHT22;51386;53.082;8.816;2023-12-20T04:18:09;8.00;96.40
64888;DHT22;51386;53.082;8.816;2023-12-20T04:20:38;8.00;96.30
64888;DHT22;51386;53.082;8.816;2023-12-20T04:23:06;8.00;96.30
64888;DHT22;51386;53.082;8.816;2023-12-20T04:25:35;8.00;96.30
64888;DHT22;51386;53.082;8.816;2023-12-20T04:28:03;8.00;96.20
64888;DHT22;51386;53.082;8.816;2023-12-20T04:30:32;8.10;96.10
64888;DHT22;51386;53.082;8.816;2023-12-20T04:33:01;8.10;96.20
64888;DHT22;51386;53.082;8.816;2023-12-20T04:35:30;8.10;96.20
64888;DHT22;51386;53.082;8.816;2023-12-20T04:37:58;8.10;96.10
64888;DHT22;51386;53.082;8.816;2023-12-20T04:40:27;8.10;96.10
64888;DHT22;51386;53.082;8.816;2023-12-20T04:42:55;8.10;96.10
64888;DHT22;51386;53.082;8.816;2023-12-20T04:45:23;8.10;96.00
64888;DHT22;51386;53.082;8.816;2023-12-20T04:47:52;8.20;96.00
64888;DHT22;51386;53.082;8.816;2023-12-20T04:50:21;8.10;95.90
64888;DHT22;51386;53.082;8.816;2023-12-20T04:52:50;8.10;95.90
64888;DHT22;51386;53.082;8.816;2023-12-20T04:55:19;8.10;96.00
64888;DHT22;51386;53.082;8.816;2023-12-20T04:57:47;8.10;96.00
64888;DHT22;51386;53.082;8.816;2023-12-20T05:00:16;8.10;96.00
64888;DHT22;51386;53.082;8.816;2023-12-20T05:02:45;8.10;96.10
64888;DHT22;51386;53.082;8.816;2023-12-20T05:05:13;8.00;96.10
64888;DHT22;51386;53.082;8.816;2023-12-20T05:07:43;8.10;96.20
64888;DHT22;51386;53.082;8.816;2023-12-20T05:10:12;8.10;96.10
64888;DHT22;51386;53.082;8.816;2023-12-20T05:12:40;8.10;96.10
64888;DHT22;51386;53.082;8.816;2023-12-20T05:15:09;8.10;96.20
64888;DHT22;51386;53.082;8.816;2023-12-20T05:17:37;8.10;96.20
64888;DHT22;51386;53.082;8.816;2023-12-20T05:20:06;8.10;96.10
64888;DHT22;51386;53.082;8.816;2023-12-20T05:22:36;8.10;96.20
64888;DHT22;51386;53.082;8.816;2023-12-20T05:25:04;8.10;96.20
64888;DHT22;51386;53.082;8.816;2023-12-20T05:27:36;8.10;96.20
64888;DHT22;51386;53.082;8.816;2023-12-20T05:30:04;8.20;96.20
64888;DHT22;51386;53.082;8.816;2023-12-20T05:32:34;8.20;96.20
64888;DHT22;51386;53.082;8.816;2023-12-20T05:35:02;8.20;96.20
64888;DHT22;51386;53.082;8.816;2023-12-20T05:37:31;8.20;96.20
64888;DHT22;51386;53.082;8.816;2023-12-20T05:39:59;8.20;96.10
64888;DHT22;51386;53.082;8.816;2023-12-20T05:42:28;8.20;96.10
64888;DHT22;51386;53.082;8.816;2023-12-20T05:44:56;8.20;96.00
64888;DHT22;51386;53.082;8.816;2023-12-20T05:47:25;8.10;95.90
64888;DHT22;51386;53.082;8.816;2023-12-20T05:49:53;8.10;95.90
64888;DHT22;51386;53.082;8.816;2023-12-20T05:52:21;8.10;96.00
64888;DHT22;51386;53.082;8.816;2023-12-20T05:54:50;8.10;96.00
64888;DHT22;51386;53.082;8.816;2023-12-20T05:57:18;8.10;96.00
64888;DHT22;51386;53.082;8.816;2023-12-20T05:59:47;8.10;96.00
64888;DHT22;51386;53.082;8.816;2023-12-20T06:02:15;8.20;96.00
64888;DHT22;51386;53.082;8.816;2023-12-20T06:04:44;8.20;96.00
64888;DHT22;51386;53.082;8.816;2023-12-20T06:07:13;8.20;96.10
64888;DHT22;51386;53.082;8.816;2023-12-20T06:09:43;8.20;96.10
64888;DHT22;51386;53.082;8.816;2023-12-20T06:12:11;8.20;96.00
64888;DHT22;51386;53.082;8.816;2023-12-20T06:14:40;8.20;95.90
64888;DHT22;51386;53.082;8.816;2023-12-20T06:17:08;8.20;95.90
64888;DHT22;51386;53.082;8.816;2023-12-20T06:19:36;8.20;96.00
64888;DHT22;51386;53.082;8.816;2023-12-20T06:22:05;8.30;96.00
64888;DHT22;51386;53.082;8.816;2023-12-20T06:24:33;8.30;96.00
64888;DHT22;51386;53.082;8.816;2023-12-20T06:27:02;8.30;96.00
64888;DHT22;51386;53.082;8.816;2023-12-20T06:29:31;8.30;96.00
64888;DHT22;51386;53.082;8.816;2023-12-20T06:31:59;8.30;96.00
64888;DHT22;51386;53.082;8.816;2023-12-20T06:34:28;8.40;96.00
64888;DHT22;51386;53.082;8.816;2023-12-20T06:36:56;8.40;96.00
64888;DHT22;51386;53.082;8.816;2023-12-20T06:39:25;8.40;96.00
64888;DHT22;51386;53.082;8.816;2023-12-20T06:41:53;8.40;96.00
64888;DHT22;51386;53.082;8.816;2023-12-20T06:44:22;8.50;96.00
64888;DHT22;51386;53.082;8.816;2023-12-20T06:46:50;8.50;95.80
64888;DHT22;51386;53.082;8.816;2023-12-20T06:49:18;8.50;95.80
64888;DHT22;51386;53.082;8.816;2023-12-20T06:51:47;8.50;95.70
64888;DHT22;51386;53.082;8.816;2023-12-20T06:54:15;8.50;95.60
64888;DHT22;51386;53.082;8.816;2023-12-20T06:56:44;8.50;95.50
64888;DHT22;51386;53.082;8.816;2023-12-20T06:59:12;8.60;95.60
64888;DHT22;51386;53.082;8.816;2023-12-20T07:01:40;8.60;95.60
64888;DHT22;51386;53.082;8.816;2023-12-20T07:06:58;8.60;95.60
64888;DHT22;51386;53.082;8.816;2023-12-20T07:09:28;8.60;95.50
64888;DHT22;51386;53.082;8.816;2023-12-20T07:11:56;8.60;95.60
64888;DHT22;51386;53.082;8.816;2023-12-20T07:14:25;8.70;95.60
64888;DHT22;51386;53.082;8.816;2023-12-20T07:16:53;8.60;95.50
64888;DHT22;51386;53.082;8.816;2023-12-20T07:19:22;8.70;95.50
64888;DHT22;51386;53.082;8.816;2023-12-20T07:21:54;8.70;95.50
64888;DHT22;51386;53.082;8.816;2023-12-20T07:24:24;8.70;95.50
64888;DHT22;51386;53.082;8.816;2023-12-20T07:26:53;8.70;95.40
64888;DHT22;51386;53.082;8.816;2023-12-20T07:29:21;8.70;95.50
64888;DHT22;51386;53.082;8.816;2023-12-20T07:31:50;8.70;95.40
64888;DHT22;51386;53.082;8.816;2023-12-20T07:34:20;8.70;95.40
64888;DHT22;51386;53.082;8.816;2023-12-20T07:36:54;8.70;95.40
64888;DHT22;51386;53.082;8.816;2023-12-20T07:39:37;8.70;95.50
64888;DHT22;51386;53.082;8.816;2023-12-20T07:42:13;8.70;95.50
64888;DHT22;51386;53.082;8.816;2023-12-20T07:44:47;8.80;95.40
64888;DHT22;51386;53.082;8.816;2023-12-20T07:47:23;8.80;95.40
64888;DHT22;51386;53.082;8.816;2023-12-20T07:49:56;8.80;95.40
64888;DHT22;51386;53.082;8.816;2023-12-20T07:52:26;8.80;95.50
64888;DHT22;51386;53.082;8.816;2023-12-20T07:54:55;8.80;95.50
64888;DHT22;51386;53.082;8.816;2023-12-20T07:57:24;8.80;95.50
64888;DHT22;51386;53.082;8.816;2023-12-20T08:00:14;8.80;95.60
64888;DHT22;51386;53.082;8.816;2023-12-20T08:03:03;8.80;95.60
64888;DHT22;51386;53.082;8.816;2023-12-20T08:05:32;8.80;95.60
64888;DHT22;51386;53.082;8.816;2023-12-20T08:08:00;8.90;95.60
64888;DHT22;51386;53.082;8.816;2023-12-20T08:10:29;8.90;95.60
64888;DHT22;51386;53.082;8.816;2023-12-20T08:12:58;8.80;95.50
64888;DHT22;51386;53.082;8.816;2023-12-20T08:15:28;8.80;95.50
64888;DHT22;51386;53.082;8.816;2023-12-20T08:17:57;8.90;95.50
64888;DHT22;51386;53.082;8.816;2023-12-20T08:20:27;8.90;95.50
64888;DHT22;51386;53.082;8.816;2023-12-20T08:23:06;8.90;95.50
64888;DHT22;51386;53.082;8.816;2023-12-20T08:25:35;8.90;95.40
64888;DHT22;51386;53.082;8.816;2023-12-20T08:28:05;8.90;95.40
64888;DHT22;51386;53.082;8.816;2023-12-20T08:30:36;8.90;95.40
64888;DHT22;51386;53.082;8.816;2023-12-20T08:33:13;9.00;95.40
64888;DHT22;51386;53.082;8.816;2023-12-20T08:35:46;9.00;95.40
64888;DHT22;51386;53.082;8.816;2023-12-20T08:38:15;9.00;95.40
64888;DHT22;51386;53.082;8.816;2023-12-20T08:40:44;9.10;95.50
64888;DHT22;51386;53.082;8.816;2023-12-20T08:43:16;9.10;95.40
64888;DHT22;51386;53.082;8.816;2023-12-20T08:45:52;9.10;95.40
64888;DHT22;51386;53.082;8.816;2023-12-20T08:48:20;9.20;95.30
64888;DHT22;51386;53.082;8.816;2023-12-20T08:50:49;9.20;95.30
64888;DHT22;51386;53.082;8.816;2023-12-20T08:53:19;9.20;95.30
64888;DHT22;51386;53.082;8.816;2023-12-20T08:55:48;9.20;95.30
64888;DHT22;51386;53.082;8.816;2023-12-20T08:58:16;9.30;95.30
64888;DHT22;51386;53.082;8.816;2023-12-20T09:00:45;9.20;95.20
64888;DHT22;51386;53.082;8.816;2023-12-20T09:03:14;9.30;95.30
64888;DHT22;51386;53.082;8.816;2023-12-20T09:05:43;9.30;95.30
64888;DHT22;51386;53.082;8.816;2023-12-20T09:08:21;9.30;95.30
64888;DHT22;51386;53.082;8.816;2023-12-20T09:10:49;9.30;95.30
64888;DHT22;51386;53.082;8.816;2023-12-20T09:13:18;9.30;95.40
64888;DHT22;51386;53.082;8.816;2023-12-20T09:15:50;9.30;95.60
64888;DHT22;51386;53.082;8.816;2023-12-20T09:18:19;9.30;95.70
64888;DHT22;51386;53.082;8.816;2023-12-20T09:20:47;9.30;95.70
64888;DHT22;51386;53.082;8.816;2023-12-20T09:23:30;9.20;95.80
64888;DHT22;51386;53.082;8.816;2023-12-20T09:27:17;9.20;96.00
64888;DHT22;51386;53.082;8.816;2023-12-20T09:29:49;9.20;96.00
64888;DHT22;51386;53.082;8.816;2023-12-20T09:32:36;9.20;96.00
64888;DHT22;51386;53.082;8.816;2023-12-20T09:35:19;9.10;96.00
64888;DHT22;51386;53.082;8.816;2023-12-20T09:37:54;9.10;96.10
64888;DHT22;51386;53.082;8.816;2023-12-20T09:40:26;9.10;96.20
64888;DHT22;51386;53.082;8.816;2023-12-20T09:43:03;9.10;96.30
64888;DHT22;51386;53.082;8.816;2023-12-20T09:45:46;9.10;96.30
64888;DHT22;51386;53.082;8.816;2023-12-20T09:48:25;9.10;96.40
64888;DHT22;51386;53.082;8.816;2023-12-20T09:50:58;9.10;96.40
64888;DHT22;51386;53.082;8.816;2023-12-20T09:53:27;9.10;96.60
64888;DHT22;51386;53.082;8.816;2023-12-20T09:55:58;9.10;96.60
64888;DHT22;51386;53.082;8.816;2023-12-20T09:58:28;9.10;96.40
64888;DHT22;51386;53.082;8.816;2023-12-20T10:00:57;9.10;96.10
64888;DHT22;51386;53.082;8.816;2023-12-20T10:03:25;9.00;95.90
64888;DHT22;51386;53.082;8.816;2023-12-20T10:05:56;9.00;95.80
64888;DHT22;51386;53.082;8.816;2023-12-20T10:08:26;8.90;95.40
64888;DHT22;51386;53.082;8.816;2023-12-20T10:10:54;8.90;95.30
64888;DHT22;51386;53.082;8.816;2023-12-20T10:13:25;8.80;95.20
64888;DHT22;51386;53.082;8.816;2023-12-20T10:15:55;8.80;95.10
64888;DHT22;51386;53.082;8.816;2023-12-20T10:18:24;8.70;95.10
64888;DHT22;51386;53.082;8.816;2023-12-20T10:21:06;8.70;95.10
64888;DHT22;51386;53.082;8.816;2023-12-20T10:23:37;8.60;95.00
64888;DHT22;51386;53.082;8.816;2023-12-20T10:26:07;8.60;94.90
64888;DHT22;51386;53.082;8.816;2023-12-20T10:28:36;8.60;95.00
64888;DHT22;51386;53.082;8.816;2023-12-20T10:31:08;8.60;95.20
64888;DHT22;51386;53.082;8.816;2023-12-20T10:33:36;8.50;95.10
64888;DHT22;51386;53.082;8.816;2023-12-20T10:36:09;8.60;95.20
64888;DHT22;51386;53.082;8.816;2023-12-20T10:38:39;8.50;95.10
64888;DHT22;51386;53.082;8.816;2023-12-20T10:41:11;8.50;95.00
64888;DHT22;51386;53.082;8.816;2023-12-20T10:43:42;8.50;94.90
64888;DHT22;51386;53.082;8.816;2023-12-20T10:46:11;8.50;95.10
64888;DHT22;51386;53.082;8.816;2023-12-20T10:48:41;8.50;95.10
64888;DHT22;51386;53.082;8.816;2023-12-20T10:51:14;8.60;95.10
64888;DHT22;51386;53.082;8.816;2023-12-20T10:53:47;8.60;94.90
64888;DHT22;51386;53.082;8.816;2023-12-20T10:56:18;8.70;94.90
64888;DHT22;51386;53.082;8.816;2023-12-20T10:58:50;8.70;94.70
64888;DHT22;51386;53.082;8.816;2023-12-20T11:01:19;8.70;94.70
64888;DHT22;51386;53.082;8.816;2023-12-20T11:03:51;8.70;94.50
64888;DHT22;51386;53.082;8.816;2023-12-20T11:12:15;8.70;94.30
64888;DHT22;51386;53.082;8.816;2023-12-20T11:14:53;8.70;94.50
64888;DHT22;51386;53.082;8.816;2023-12-20T11:17:26;8.70;94.20
64888;DHT22;51386;53.082;8.816;2023-12-20T11:22:24;8.60;94.30
64888;DHT22;51386;53.082;8.816;2023-12-20T11:25:00;8.60;94.40
64888;DHT22;51386;53.082;8.816;2023-12-20T11:27:35;8.70;94.50
64888;DHT22;51386;53.082;8.816;2023-12-20T11:30:54;8.70;94.50
64888;DHT22;51386;53.082;8.816;2023-12-20T11:33:37;8.80;94.50
64888;DHT22;51386;53.082;8.816;2023-12-20T11:36:14;8.80;94.30
64888;DHT22;51386;53.082;8.816;2023-12-20T11:38:56;8.90;94.50
64888;DHT22;51386;53.082;8.816;2023-12-20T11:41:26;9.10;95.30
64888;DHT22;51386;53.082;8.816;2023-12-20T11:43:55;9.40;95.80
64888;DHT22;51386;53.082;8.816;2023-12-20T11:46:24;9.70;95.40
64888;DHT22;51386;53.082;8.816;2023-12-20T11:48:54;10.10;94.60
64888;DHT22;51386;53.082;8.816;2023-12-20T11:51:23;10.60;94.70
64888;DHT22;51386;53.082;8.816;2023-12-20T11:53:54;11.00;93.40
64888;DHT22;51386;53.082;8.816;2023-12-20T11:56:23;11.40;92.90
64888;DHT22;51386;53.082;8.816;2023-12-20T11:58:51;11.80;91.50
64888;DHT22;51386;53.082;8.816;2023-12-20T12:01:22;12.10;90.60
64888;DHT22;51386;53.082;8.816;2023-12-20T12:04:05;12.30;90.10
64888;DHT22;51386;53.082;8.816;2023-12-20T12:06:34;12.50;88.00
64888;DHT22;51386;53.082;8.816;2023-12-20T12:09:03;12.70;86.20
64888;DHT22;51386;53.082;8.816;2023-12-20T12:11:32;12.70;85.10
64888;DHT22;51386;53.082;8.816;2023-12-20T12:14:01;12.80;85.70
64888;DHT22;51386;53.082;8.816;2023-12-20T12:16:30;12.90;85.00
64888;DHT22;51386;53.082;8.816;2023-12-20T12:18:59;12.90;83.20
64888;DHT22;51386;53.082;8.816;2023-12-20T12:21:27;12.80;83.50
64888;DHT22;51386;53.082;8.816;2023-12-20T12:24:09;12.70;83.30
64888;DHT22;51386;53.082;8.816;2023-12-20T12:26:38;12.60;82.40
64888;DHT22;51386;53.082;8.816;2023-12-20T12:29:09;12.40;83.10
64888;DHT22;51386;53.082;8.816;2023-12-20T12:31:38;12.20;83.40
64888;DHT22;51386;53.082;8.816;2023-12-20T12:34:07;12.00;83.70
64888;DHT22;51386;53.082;8.816;2023-12-20T12:36:37;11.80;84.10
64888;DHT22;51386;53.082;8.816;2023-12-20T12:39:05;11.70;84.80
64888;DHT22;51386;53.082;8.816;2023-12-20T12:41:34;11.50;85.10
64888;DHT22;51386;53.082;8.816;2023-12-20T12:44:02;11.40;85.20
64888;DHT22;51386;53.082;8.816;2023-12-20T12:46:43;11.20;85.50
64888;DHT22;51386;53.082;8.816;2023-12-20T12:49:15;11.10;85.60
64888;DHT22;51386;53.082;8.816;2023-12-20T12:51:43;11.10;85.80
64888;DHT22;51386;53.082;8.816;2023-12-20T12:54:12;11.00;86.10
64888;DHT22;51386;53.082;8.816;2023-12-20T12:56:44;10.90;86.50
64888;DHT22;51386;53.082;8.816;2023-12-20T12:59:12;10.90;87.10
64888;DHT22;51386;53.082;8.816;2023-12-20T13:01:41;10.80;87.40
64888;DHT22;51386;53.082;8.816;2023-12-20T13:04:09;10.70;87.50
64888;DHT22;51386;53.082;8.816;2023-12-20T13:06:39;10.70;88.20
64888;DHT22;51386;53.082;8.816;2023-12-20T13:09:12;10.60;88.20
64888;DHT22;51386;53.082;8.816;2023-12-20T13:12:13;10.50;88.00
64888;DHT22;51386;53.082;8.816;2023-12-20T13:14:42;10.50;88.00
64888;DHT22;51386;53.082;8.816;2023-12-20T13:17:10;10.40;87.80
64888;DHT22;51386;53.082;8.816;2023-12-20T13:19:38;10.40;88.10
64888;DHT22;51386;53.082;8.816;2023-12-20T13:22:07;10.30;88.40
64888;DHT22;51386;53.082;8.816;2023-12-20T13:24:35;10.30;88.70
64888;DHT22;51386;53.082;8.816;2023-12-20T13:27:14;10.20;88.80
64888;DHT22;51386;53.082;8.816;2023-12-20T13:29:46;10.20;89.20
64888;DHT22;51386;53.082;8.816;2023-12-20T13:32:26;10.20;89.50
64888;DHT22;51386;53.082;8.816;2023-12-20T13:34:55;10.20;89.80
64888;DHT22;51386;53.082;8.816;2023-12-20T13:37:23;10.20;89.70
64888;DHT22;51386;53.082;8.816;2023-12-20T13:39:52;10.20;89.90
64888;DHT22;51386;53.082;8.816;2023-12-20T13:42:20;10.20;89.80
64888;DHT22;51386;53.082;8.816;2023-12-20T13:44:48;10.10;89.70
64888;DHT22;51386;53.082;8.816;2023-12-20T13:47:17;10.10;89.90
64888;DHT22;51386;53.082;8.816;2023-12-20T13:49:48;10.00;90.00
64888;DHT22;51386;53.082;8.816;2023-12-20T13:52:17;10.00;90.10
64888;DHT22;51386;53.082;8.816;2023-12-20T13:54:46;9.90;90.70
64888;DHT22;51386;53.082;8.816;2023-12-20T13:57:15;9.80;90.80
64888;DHT22;51386;53.082;8.816;2023-12-20T13:59:47;9.80;90.90
64888;DHT22;51386;53.082;8.816;2023-12-20T14:02:16;9.70;91.20
64888;DHT22;51386;53.082;8.816;2023-12-20T14:04:44;9.70;91.30
64888;DHT22;51386;53.082;8.816;2023-12-20T14:07:12;9.60;91.30
64888;DHT22;51386;53.082;8.816;2023-12-20T14:09:41;9.60;91.40
64888;DHT22;51386;53.082;8.816;2023-12-20T14:12:13;9.50;91.40
64888;DHT22;51386;53.082;8.816;2023-12-20T14:14:42;9.50;91.50
64888;DHT22;51386;53.082;8.816;2023-12-20T14:17:11;9.50;91.50
64888;DHT22;51386;53.082;8.816;2023-12-20T14:19:40;9.50;91.50
64888;DHT22;51386;53.082;8.816;2023-12-20T14:22:08;9.50;91.50
64888;DHT22;51386;53.082;8.816;2023-12-20T14:24:37;9.50;91.40
64888;DHT22;51386;53.082;8.816;2023-12-20T14:27:05;9.50;91.50
64888;DHT22;51386;53.082;8.816;2023-12-20T14:29:34;9.40;91.40
64888;DHT22;51386;53.082;8.816;2023-12-20T14:32:02;9.40;91.40
64888;DHT22;51386;53.082;8.816;2023-12-20T14:34:31;9.40;91.30
64888;DHT22;51386;53.082;8.816;2023-12-20T14:37:00;9.40;91.30
64888;DHT22;51386;53.082;8.816;2023-12-20T14:39:28;9.30;91.30
64888;DHT22;51386;53.082;8.816;2023-12-20T14:41:56;9.30;91.40
64888;DHT22;51386;53.082;8.816;2023-12-20T14:44:25;9.30;91.40
64888;DHT22;51386;53.082;8.816;2023-12-20T14:46:53;9.20;91.40
64888;DHT22;51386;53.082;8.816;2023-12-20T14:49:22;9.20;91.40
64888;DHT22;51386;53.082;8.816;2023-12-20T14:51:50;9.20;91.50
64888;DHT22;51386;53.082;8.816;2023-12-20T14:54:19;9.10;91.50
64888;DHT22;51386;53.082;8.816;2023-12-20T14:56:48;9.10;91.50
64888;DHT22;51386;53.082;8.816;2023-12-20T14:59:17;9.10;91.50
64888;DHT22;51386;53.082;8.816;2023-12-20T15:01:45;9.10;91.60
64888;DHT22;51386;53.082;8.816;2023-12-20T15:04:14;9.00;91.90
64888;DHT22;51386;53.082;8.816;2023-12-20T15:06:42;9.00;91.70
64888;DHT22;51386;53.082;8.816;2023-12-20T15:09:12;9.00;91.70
64888;DHT22;51386;53.082;8.816;2023-12-20T15:11:40;9.00;91.80
64888;DHT22;51386;53.082;8.816;2023-12-20T15:14:09;9.00;91.90
64888;DHT22;51386;53.082;8.816;2023-12-20T15:16:37;9.00;91.90
64888;DHT22;51386;53.082;8.816;2023-12-20T15:19:06;9.00;92.00
64888;DHT22;51386;53.082;8.816;2023-12-20T15:21:34;9.00;92.20
64888;DHT22;51386;53.082;8.816;2023-12-20T15:24:13;9.00;92.20
64888;DHT22;51386;53.082;8.816;2023-12-20T15:26:43;9.00;92.20
64888;DHT22;51386;53.082;8.816;2023-12-20T15:29:12;9.00;92.30
64888;DHT22;51386;53.082;8.816;2023-12-20T15:31:43;9.00;92.30
64888;DHT22;51386;53.082;8.816;2023-12-20T15:34:13;9.00;92.40
64888;DHT22;51386;53.082;8.816;2023-12-20T15:36:42;8.90;92.30
64888;DHT22;51386;53.082;8.816;2023-12-20T15:39:12;8.90;92.40
64888;DHT22;51386;53.082;8.816;2023-12-20T15:41:42;9.00;92.50
64888;DHT22;51386;53.082;8.816;2023-12-20T15:44:10;9.00;92.60
64888;DHT22;51386;53.082;8.816;2023-12-20T15:46:39;9.00;92.70
64888;DHT22;51386;53.082;8.816;2023-12-20T15:49:07;9.00;92.80
64888;DHT22;51386;53.082;8.816;2023-12-20T15:51:38;9.00;93.00
64888;DHT22;51386;53.082;8.816;2023-12-20T15:54:07;9.00;93.00
64888;DHT22;51386;53.082;8.816;2023-12-20T15:56:36;9.00;93.00
64888;DHT22;51386;53.082;8.816;2023-12-20T15:59:04;9.00;93.00
64888;DHT22;51386;53.082;8.816;2023-12-20T16:01:33;9.00;93.10
64888;DHT22;51386;53.082;8.816;2023-12-20T16:04:03;9.00;93.10
64888;DHT22;51386;53.082;8.816;2023-12-20T16:06:33;9.00;93.20
64888;DHT22;51386;53.082;8.816;2023-12-20T16:09:02;9.00;93.30
64888;DHT22;51386;53.082;8.816;2023-12-20T16:11:30;9.00;93.50
64888;DHT22;51386;53.082;8.816;2023-12-20T16:13:59;8.90;93.60